createdAt,value
2022-08-09T00:04:34.839Z,55.86
2022-08-09T00:12:15.508Z,57.02
2022-08-09T00:19:56.613Z,56.74
2022-08-09T00:27:36.109Z,56.64
2022-08-09T00:35:10.572Z,56.96
2022-08-09T00:44:13.225Z,56.84
2022-08-09T00:50:39.895Z,56.97
2022-08-09T00:58:25.412Z,57.12
2022-08-09T01:06:13.913Z,57.36
2022-08-09T01:14:01.850Z,58.13
2022-08-09T01:21:51.232Z,58.37
2022-08-09T01:29:55.751Z,59.93
2022-08-09T01:38:06.366Z,59.37
2022-08-09T01:45:29.169Z,61.22
2022-08-09T01:53:19.249Z,65.22
2022-08-09T02:00:57.491Z,67.44
2022-08-09T02:08:57.254Z,65.48
2022-08-09T02:16:33.921Z,63.92
2022-08-09T02:24:35.994Z,63.40
2022-08-09T02:32:13.590Z,63.59
2022-08-09T02:39:55.104Z,64.13
2022-08-09T02:47:33.845Z,64.97
2022-08-09T02:55:21.513Z,65.42
2022-08-09T03:03:00.630Z,66.28
2022-08-09T03:10:37.344Z,66.71
2022-08-09T03:18:13.134Z,67.07
2022-08-09T03:25:58.537Z,67.12
2022-08-09T03:33:53.311Z,67.07
2022-08-09T03:41:29.715Z,68.08
2022-08-09T03:49:08.063Z,67.06
2022-08-09T03:56:46.448Z,67.30
2022-08-09T04:04:24.675Z,67.35
2022-08-09T04:12:30.767Z,67.80
2022-08-09T04:20:08.965Z,67.96
2022-08-09T04:27:42.826Z,68.39
2022-08-09T04:35:24.432Z,68.49
2022-08-09T04:42:58.202Z,68.79
2022-08-09T04:50:37.749Z,68.80
2022-08-09T04:58:12.041Z,68.33
2022-08-09T05:05:52.525Z,68.79
2022-08-09T05:13:40.587Z,68.65
2022-08-09T05:21:23.266Z,68.63
2022-08-09T05:28:58.058Z,68.69
2022-08-09T05:36:34.003Z,68.97
2022-08-09T05:44:07.575Z,68.22
2022-08-09T05:51:46.369Z,68.12
2022-08-09T05:59:21.961Z,67.61
2022-08-09T06:06:57.242Z,67.49
2022-08-09T06:14:31.151Z,68.12
2022-08-09T06:22:07.680Z,66.61
2022-08-09T06:30:04.359Z,65.51
2022-08-09T06:37:53.040Z,65.38
2022-08-09T06:46:06.471Z,62.37
2022-08-09T06:53:38.179Z,62.67
2022-08-09T07:01:13.375Z,61.59
2022-08-09T07:08:49.766Z,60.57
2022-08-09T07:16:42.562Z,59.70
2022-08-09T07:24:19.145Z,59.06
2022-08-09T07:31:54.730Z,58.95
2022-08-09T07:39:41.389Z,58.54
2022-08-09T07:47:16.378Z,59.22
2022-08-09T07:54:53.389Z,57.42
2022-08-09T08:02:27.464Z,55.87
2022-08-09T08:10:08.262Z,55.26
2022-08-09T08:17:53.763Z,53.97
2022-08-09T08:25:44.428Z,53.91
2022-08-09T08:33:22.881Z,55.01
2022-08-09T08:41:05.511Z,48.00
2022-08-09T08:48:51.265Z,45.58
2022-08-09T08:56:28.108Z,44.85
2022-08-09T09:04:03.535Z,44.59
2022-08-09T09:11:38.857Z,46.13
2022-08-09T09:19:36.903Z,41.52
2022-08-09T09:27:22.065Z,40.87
2022-08-09T09:35:07.475Z,39.81
2022-08-09T09:42:55.787Z,40.43
2022-08-09T09:50:49.817Z,39.72
2022-08-09T09:58:27.403Z,38.26
2022-08-09T10:06:05.091Z,40.86
2022-08-09T10:13:43.088Z,37.30
2022-08-09T10:21:19.193Z,37.58
2022-08-09T10:29:37.622Z,37.13
2022-08-09T10:36:56.693Z,37.46
2022-08-09T10:44:32.580Z,37.57
2022-08-09T10:52:20.271Z,37.45
2022-08-09T11:00:01.689Z,37.94
2022-08-09T11:07:58.473Z,37.30
2022-08-09T11:15:34.146Z,36.56
2022-08-09T11:23:13.646Z,36.27
2022-08-09T11:30:48.954Z,36.74
2022-08-09T11:38:28.605Z,36.88
2022-08-09T11:46:08.745Z,36.78
2022-08-09T11:53:59.385Z,34.78
2022-08-09T12:02:17.865Z,36.77
2022-08-09T12:09:36.185Z,35.74
2022-08-09T12:17:34.035Z,35.68
2022-08-09T12:25:15.747Z,36.08
2022-08-09T12:33:02.659Z,35.36
2022-08-09T12:40:45.760Z,35.08
2022-08-09T12:48:33.031Z,34.82
2022-08-09T12:56:29.758Z,36.33
2022-08-09T13:04:27.496Z,35.06
2022-08-09T13:12:06.383Z,33.38
2022-08-09T13:20:07.526Z,33.38
2022-08-09T13:27:54.740Z,33.66
2022-08-09T13:35:34.823Z,33.94
2022-08-09T13:43:35.691Z,33.67
2022-08-09T13:51:13.913Z,32.76
2022-08-09T13:58:52.031Z,34.48
2022-08-09T14:06:29.589Z,35.53
2022-08-09T14:14:22.539Z,35.49
2022-08-09T14:22:01.337Z,34.30
2022-08-09T14:30:34.799Z,35.23
2022-08-09T14:38:01.277Z,34.45
2022-08-09T14:46:56.150Z,34.70
2022-08-09T14:53:19.700Z,34.02
2022-08-09T15:00:58.564Z,34.09
2022-08-09T15:08:34.322Z,33.15
2022-08-09T15:16:10.240Z,32.47
2022-08-09T15:24:01.337Z,31.90
2022-08-09T15:31:40.667Z,32.07
2022-08-09T15:39:17.899Z,31.67
2022-08-09T15:46:52.024Z,31.40
2022-08-09T15:54:36.890Z,30.81
2022-08-09T16:02:18.358Z,30.62
2022-08-09T16:10:04.958Z,29.76
2022-08-09T16:17:39.875Z,29.64
2022-08-09T16:25:15.784Z,30.58
2022-08-09T16:33:07.230Z,31.89
2022-08-09T16:40:43.717Z,32.20
2022-08-09T16:48:41.363Z,31.88
2022-08-09T16:56:14.965Z,32.91
2022-08-09T17:03:48.922Z,33.44
2022-08-09T17:11:41.044Z,33.82
2022-08-09T17:19:16.074Z,34.13
2022-08-09T17:26:56.368Z,34.92
2022-08-09T17:35:07.474Z,35.80
2022-08-09T17:42:40.828Z,36.51
2022-08-09T17:50:17.213Z,37.10
2022-08-09T17:58:03.877Z,37.05
2022-08-09T18:05:43.974Z,37.83
2022-08-09T18:13:43.389Z,38.05
2022-08-09T18:21:22.688Z,38.38
2022-08-09T18:30:34.665Z,39.02
2022-08-09T18:36:53.404Z,39.43
2022-08-09T18:44:28.881Z,39.95
2022-08-09T18:52:02.702Z,40.55
2022-08-09T18:59:48.664Z,41.77
2022-08-09T19:07:23.287Z,41.90
2022-08-09T19:15:02.658Z,42.29
2022-08-09T19:22:38.824Z,43.37
2022-08-09T19:30:28.560Z,44.02
2022-08-09T19:38:02.728Z,44.74
2022-08-09T19:45:40.264Z,45.03
2022-08-09T19:53:16.268Z,45.29
2022-08-09T20:00:55.793Z,46.09
2022-08-09T20:08:34.952Z,46.05
2022-08-09T20:16:38.058Z,46.58
2022-08-09T20:24:06.371Z,47.47
2022-08-09T20:32:16.827Z,48.08
2022-08-09T20:40:17.300Z,48.63
2022-08-09T20:47:47.844Z,49.86
2022-08-09T20:55:22.529Z,50.09
2022-08-09T21:03:02.683Z,50.79
2022-08-09T21:10:38.803Z,51.13
2022-08-09T21:18:24.471Z,51.64
2022-08-09T21:26:00.287Z,51.79
2022-08-09T21:33:36.301Z,52.46
2022-08-09T21:41:11.940Z,52.60
2022-08-09T21:48:52.912Z,53.86
2022-08-09T21:56:34.010Z,54.35
2022-08-09T22:04:21.888Z,54.78
2022-08-09T22:12:18.299Z,55.25
2022-08-09T22:19:59.653Z,56.13
2022-08-09T22:27:36.166Z,57.23
2022-08-09T22:36:01.376Z,57.61
2022-08-09T22:43:08.493Z,57.97
2022-08-09T22:50:52.785Z,58.28
2022-08-09T22:58:33.062Z,59.05
2022-08-09T23:06:08.954Z,59.10
2022-08-09T23:13:49.313Z,60.41
2022-08-09T23:21:27.794Z,60.70
2022-08-09T23:29:06.712Z,62.07
2022-08-09T23:36:41.905Z,62.58
2022-08-09T23:44:15.835Z,63.26
2022-08-09T23:51:51.134Z,64.13
2022-08-09T23:59:25.790Z,64.14
